sensor_id;sensor_type;location;lat;lon;timestamp;pressure;altitude;pressure_sealevel;temperature;humidity
8160;BME280;27404;52.398;9.646;2024-01-06T00:02:05;99546.13;;;3.24;100.00
8160;BME280;27404;52.398;9.646;2024-01-06T00:04:30;99537.97;;;3.31;100.00
8160;BME280;27404;52.398;9.646;2024-01-06T00:06:56;99547.94;;;3.37;100.00
8160;BME280;27404;52.398;9.646;2024-01-06T00:09:22;99549.41;;;3.33;100.00
8160;BME280;27404;52.398;9.646;2024-01-06T00:11:47;99552.47;;;3.36;100.00
8160;BME280;27404;52.398;9.646;2024-01-06T00:14:12;99556.00;;;3.44;100.00
8160;BME280;27404;52.398;9.646;2024-01-06T00:16:38;99558.25;;;3.47;100.00
8160;BME280;27404;52.398;9.646;2024-01-06T00:19:03;99563.09;;;3.38;100.00
8160;BME280;27404;52.398;9.646;2024-01-06T00:21:29;99555.78;;;3.45;100.00
8160;BME280;27404;52.398;9.646;2024-01-06T00:23:54;99557.22;;;3.48;100.00
8160;BME280;27404;52.398;9.646;2024-01-06T00:26:21;99560.09;;;3.53;100.00
8160;BME280;27404;52.398;9.646;2024-01-06T00:28:47;99557.00;;;3.49;100.00
8160;BME280;27404;52.398;9.646;2024-01-06T00:31:15;99557.25;;;3.41;100.00
8160;BME280;27404;52.398;9.646;2024-01-06T00:33:42;99554.34;;;3.43;100.00
8160;BME280;27404;52.398;9.646;2024-01-06T00:36:08;99556.41;;;3.40;100.00
8160;BME280;27404;52.398;9.646;2024-01-06T00:38:34;99567.63;;;3.44;100.00
8160;BME280;27404;52.398;9.646;2024-01-06T00:41:00;99553.69;;;3.47;100.00
8160;BME280;27404;52.398;9.646;2024-01-06T00:43:26;99557.41;;;3.53;100.00
8160;BME280;27404;52.398;9.646;2024-01-06T00:45:51;99560.16;;;3.46;100.00
8160;BME280;27404;52.398;9.646;2024-01-06T00:48:17;99563.41;;;3.55;100.00
8160;BME280;27404;52.398;9.646;2024-01-06T00:50:43;99567.22;;;3.47;100.00
8160;BME280;27404;52.398;9.646;2024-01-06T00:53:08;99563.09;;;3.38;100.00
8160;BME280;27404;52.398;9.646;2024-01-06T00:55:33;99569.09;;;3.40;100.00
8160;BME280;27404;52.398;9.646;2024-01-06T00:57:59;99567.41;;;3.46;100.00
8160;BME280;27404;52.398;9.646;2024-01-06T01:00:24;99570.97;;;3.39;100.00
8160;BME280;27404;52.398;9.646;2024-01-06T01:02:50;99574.28;;;3.41;100.00
8160;BME280;27404;52.398;9.646;2024-01-06T01:05:16;99584.22;;;3.54;100.00
8160;BME280;27404;52.398;9.646;2024-01-06T01:07:41;99582.75;;;3.52;100.00
8160;BME280;27404;52.398;9.646;2024-01-06T01:10:07;99588.41;;;3.50;100.00
8160;BME280;27404;52.398;9.646;2024-01-06T01:12:34;99590.47;;;3.48;100.00
8160;BME280;27404;52.398;9.646;2024-01-06T01:14:59;99588.22;;;3.38;100.00
8160;BME280;27404;52.398;9.646;2024-01-06T01:17:24;99593.81;;;3.50;100.00
8160;BME280;27404;52.398;9.646;2024-01-06T01:19:50;99593.38;;;3.47;100.00
8160;BME280;27404;52.398;9.646;2024-01-06T01:22:15;99606.06;;;3.46;100.00
8160;BME280;27404;52.398;9.646;2024-01-06T01:24:42;99607.13;;;3.45;100.00
8160;BME280;27404;52.398;9.646;2024-01-06T01:27:07;99610.41;;;3.54;100.00
8160;BME280;27404;52.398;9.646;2024-01-06T01:29:32;99609.41;;;3.48;100.00
8160;BME280;27404;52.398;9.646;2024-01-06T01:31:58;99614.81;;;3.48;100.00
8160;BME280;27404;52.398;9.646;2024-01-06T01:34:23;99623.72;;;3.55;100.00
8160;BME280;27404;52.398;9.646;2024-01-06T01:36:49;99619.78;;;3.45;100.00
8160;BME280;27404;52.398;9.646;2024-01-06T01:39:14;99609.81;;;3.45;100.00
8160;BME280;27404;52.398;9.646;2024-01-06T01:41:40;99618.31;;;3.49;100.00
8160;BME280;27404;52.398;9.646;2024-01-06T01:44:05;99614.63;;;3.36;100.00
8160;BME280;27404;52.398;9.646;2024-01-06T01:46:32;99621.06;;;3.42;100.00
8160;BME280;27404;52.398;9.646;2024-01-06T01:49:00;99630.41;;;3.39;100.00
8160;BME280;27404;52.398;9.646;2024-01-06T01:51:31;99622.09;;;3.41;100.00
8160;BME280;27404;52.398;9.646;2024-01-06T01:53:58;99623.53;;;3.44;100.00
8160;BME280;27404;52.398;9.646;2024-01-06T01:56:25;99619.63;;;3.33;100.00
8160;BME280;27404;52.398;9.646;2024-01-06T01:58:51;99614.66;;;3.30;100.00
8160;BME280;27404;52.398;9.646;2024-01-06T02:01:17;99620.44;;;3.40;100.00
8160;BME280;27404;52.398;9.646;2024-01-06T02:03:43;99626.03;;;3.38;100.00
8160;BME280;27404;52.398;9.646;2024-01-06T02:06:11;99628.09;;;3.50;100.00
8160;BME280;27404;52.398;9.646;2024-01-06T02:08:37;99621.88;;;3.43;100.00
8160;BME280;27404;52.398;9.646;2024-01-06T02:11:03;99622.94;;;3.35;100.00
8160;BME280;27404;52.398;9.646;2024-01-06T02:13:35;99629.97;;;3.43;100.00
8160;BME280;27404;52.398;9.646;2024-01-06T02:16:05;99634.34;;;3.50;100.00
8160;BME280;27404;52.398;9.646;2024-01-06T02:18:31;99639.31;;;3.47;100.00
8160;BME280;27404;52.398;9.646;2024-01-06T02:21:01;99633.09;;;3.46;100.00
8160;BME280;27404;52.398;9.646;2024-01-06T02:23:30;99638.50;;;3.46;100.00
8160;BME280;27404;52.398;9.646;2024-01-06T02:25:56;99645.84;;;3.25;100.00
8160;BME280;27404;52.398;9.646;2024-01-06T02:28:22;99651.03;;;3.27;100.00
8160;BME280;27404;52.398;9.646;2024-01-06T02:30:48;99648.53;;;3.25;100.00
8160;BME280;27404;52.398;9.646;2024-01-06T02:33:13;99651.63;;;3.36;100.00
8160;BME280;27404;52.398;9.646;2024-01-06T02:35:39;99654.97;;;3.31;100.00
8160;BME280;27404;52.398;9.646;2024-01-06T02:38:06;99645.59;;;3.34;100.00
8160;BME280;27404;52.398;9.646;2024-01-06T02:40:31;99652.84;;;3.40;100.00
8160;BME280;27404;52.398;9.646;2024-01-06T02:42:58;99655.56;;;3.33;100.00
8160;BME280;27404;52.398;9.646;2024-01-06T02:45:23;99654.31;;;3.36;100.00
8160;BME280;27404;52.398;9.646;2024-01-06T02:47:48;99656.41;;;3.34;100.00
8160;BME280;27404;52.398;9.646;2024-01-06T02:50:14;99659.72;;;3.36;100.00
8160;BME280;27404;52.398;9.646;2024-01-06T02:52:39;99663.66;;;3.40;100.00
8160;BME280;27404;52.398;9.646;2024-01-06T02:55:05;99669.28;;;3.32;100.00
8160;BME280;27404;52.398;9.646;2024-01-06T02:57:31;99663.47;;;3.35;100.00
8160;BME280;27404;52.398;9.646;2024-01-06T02:59:56;99670.53;;;3.36;100.00
8160;BME280;27404;52.398;9.646;2024-01-06T03:02:22;99676.59;;;3.31;100.00
8160;BME280;27404;52.398;9.646;2024-01-06T03:04:47;99672.59;;;3.40;100.00
8160;BME280;27404;52.398;9.646;2024-01-06T03:07:13;99678.03;;;3.34;100.00
8160;BME280;27404;52.398;9.646;2024-01-06T03:09:38;99668.88;;;3.35;100.00
8160;BME280;27404;52.398;9.646;2024-01-06T03:12:05;99674.06;;;3.36;100.00
8160;BME280;27404;52.398;9.646;2024-01-06T03:14:31;99675.50;;;3.32;100.00
8160;BME280;27404;52.398;9.646;2024-01-06T03:16:56;99680.56;;;3.22;100.00
8160;BME280;27404;52.398;9.646;2024-01-06T03:19:23;99683.88;;;3.24;100.00
8160;BME280;27404;52.398;9.646;2024-01-06T03:21:51;99693.63;;;3.25;100.00
8160;BME280;27404;52.398;9.646;2024-01-06T03:24:16;99688.22;;;3.25;100.00
8160;BME280;27404;52.398;9.646;2024-01-06T03:26:42;99699.00;;;3.32;100.00
8160;BME280;27404;52.398;9.646;2024-01-06T03:29:07;99691.53;;;3.34;100.00
8160;BME280;27404;52.398;9.646;2024-01-06T03:31:33;99694.84;;;3.36;100.00
8160;BME280;27404;52.398;9.646;2024-01-06T03:33:58;99699.00;;;3.32;100.00
8160;BME280;27404;52.398;9.646;2024-01-06T03:36:24;99695.50;;;3.18;100.00
8160;BME280;27404;52.398;9.646;2024-01-06T03:38:49;99704.44;;;3.18;100.00
8160;BME280;27404;52.398;9.646;2024-01-06T03:41:14;99710.03;;;3.23;100.00
8160;BME280;27404;52.398;9.646;2024-01-06T03:43:40;99707.56;;;3.22;100.00
8160;BME280;27404;52.398;9.646;2024-01-06T03:46:05;99708.81;;;3.26;100.00
8160;BME280;27404;52.398;9.646;2024-01-06T03:48:31;99711.28;;;3.28;100.00
8160;BME280;27404;52.398;9.646;2024-01-06T03:50:58;99714.00;;;3.21;100.00
8160;BME280;27404;52.398;9.646;2024-01-06T03:53:24;99706.53;;;3.23;100.00
8160;BME280;27404;52.398;9.646;2024-01-06T03:55:49;99713.59;;;3.24;100.00
8160;BME280;27404;52.398;9.646;2024-01-06T03:58:15;99711.31;;;3.21;100.00
8160;BME280;27404;52.398;9.646;2024-01-06T04:00:40;99714.00;;;3.07;100.00
8160;BME280;27404;52.398;9.646;2024-01-06T04:03:06;99718.34;;;3.15;100.00
8160;BME280;27404;52.398;9.646;2024-01-06T04:05:32;99725.41;;;3.16;100.00
8160;BME280;27404;52.398;9.646;2024-01-06T04:07:57;99726.03;;;3.18;100.00
8160;BME280;27404;52.398;9.646;2024-01-06T04:10:23;99735.59;;;3.21;100.00
8160;BME280;27404;52.398;9.646;2024-01-06T04:12:48;99729.78;;;3.17;100.00
8160;BME280;27404;52.398;9.646;2024-01-06T04:15:14;99734.78;;;3.14;100.00
8160;BME280;27404;52.398;9.646;2024-01-06T04:17:39;99739.13;;;3.08;100.00
8160;BME280;27404;52.398;9.646;2024-01-06T04:20:05;99741.22;;;2.92;100.00
8160;BME280;27404;52.398;9.646;2024-01-06T04:22:31;99738.13;;;2.95;100.00
8160;BME280;27404;52.398;9.646;2024-01-06T04:24:56;99749.94;;;3.08;100.00
8160;BME280;27404;52.398;9.646;2024-01-06T04:27:21;99746.00;;;3.10;100.00
8160;BME280;27404;52.398;9.646;2024-01-06T04:29:47;99743.91;;;3.06;100.00
8160;BME280;27404;52.398;9.646;2024-01-06T04:32:12;99747.66;;;3.11;100.00
8160;BME280;27404;52.398;9.646;2024-01-06T04:34:38;99750.13;;;3.13;100.00
8160;BME280;27404;52.398;9.646;2024-01-06T04:37:03;99751.19;;;3.05;100.00
8160;BME280;27404;52.398;9.646;2024-01-06T04:39:29;99759.69;;;3.02;100.00
8160;BME280;27404;52.398;9.646;2024-01-06T04:41:54;99762.19;;;3.04;100.00
8160;BME280;27404;52.398;9.646;2024-01-06T04:44:20;99772.97;;;3.04;100.00
8160;BME280;27404;52.398;9.646;2024-01-06T04:46:46;99768.44;;;3.04;100.00
8160;BME280;27404;52.398;9.646;2024-01-06T04:49:11;99775.06;;;3.08;100.00
8160;BME280;27404;52.398;9.646;2024-01-06T04:51:37;99771.94;;;3.05;100.00
8160;BME280;27404;52.398;9.646;2024-01-06T04:54:03;99776.09;;;3.01;100.00
8160;BME280;27404;52.398;9.646;2024-01-06T04:56:28;99782.34;;;2.94;100.00
8160;BME280;27404;52.398;9.646;2024-01-06T04:58:54;99785.84;;;3.02;100.00
8160;BME280;27404;52.398;9.646;2024-01-06T05:01:19;99771.97;;;3.11;100.00
8160;BME280;27404;52.398;9.646;2024-01-06T05:03:45;99787.09;;;3.06;100.00
8160;BME280;27404;52.398;9.646;2024-01-06T05:06:10;99790.84;;;3.05;100.00
8160;BME280;27404;52.398;9.646;2024-01-06T05:08:36;99792.72;;;3.11;100.00
8160;BME280;27404;52.398;9.646;2024-01-06T05:11:06;99793.34;;;3.00;100.00
8160;BME280;27404;52.398;9.646;2024-01-06T05:13:32;99795.81;;;2.81;100.00
8160;BME280;27404;52.398;9.646;2024-01-06T05:15:57;99797.28;;;2.90;100.00
8160;BME280;27404;52.398;9.646;2024-01-06T05:18:23;99804.97;;;2.93;100.00
8160;BME280;27404;52.398;9.646;2024-01-06T05:20:48;99805.81;;;2.94;100.00
8160;BME280;27404;52.398;9.646;2024-01-06T05:23:14;99812.47;;;2.91;100.00
8160;BME280;27404;52.398;9.646;2024-01-06T05:25:39;99816.38;;;2.89;100.00
8160;BME280;27404;52.398;9.646;2024-01-06T05:28:05;99825.31;;;2.96;100.00
8160;BME280;27404;52.398;9.646;2024-01-06T05:30:30;99825.94;;;2.98;100.00
8160;BME280;27404;52.398;9.646;2024-01-06T05:32:55;99829.69;;;2.97;100.00
8160;BME280;27404;52.398;9.646;2024-01-06T05:35:21;99828.25;;;2.94;100.00
8160;BME280;27404;52.398;9.646;2024-01-06T05:37:46;99829.47;;;2.92;100.00
8160;BME280;27404;52.398;9.646;2024-01-06T05:40:12;99826.78;;;2.99;100.00
8160;BME280;27404;52.398;9.646;2024-01-06T05:42:39;99838.78;;;2.83;100.00
8160;BME280;27404;52.398;9.646;2024-01-06T05:45:05;99836.91;;;2.76;100.00
8160;BME280;27404;52.398;9.646;2024-01-06T05:47:31;99830.03;;;2.67;100.00
8160;BME280;27404;52.398;9.646;2024-01-06T05:49:56;99834.56;;;2.53;100.00
8160;BME280;27404;52.398;9.646;2024-01-06T05:52:22;99827.69;;;2.44;100.00
8160;BME280;27404;52.398;9.646;2024-01-06T05:54:48;99836.84;;;2.49;100.00
8160;BME280;27404;52.398;9.646;2024-01-06T05:57:14;99834.78;;;2.51;100.00
8160;BME280;27404;52.398;9.646;2024-01-06T05:59:40;99843.28;;;2.48;100.00
8160;BME280;27404;52.398;9.646;2024-01-06T06:02:05;99846.16;;;2.47;100.00
8160;BME280;27404;52.398;9.646;2024-01-06T06:04:31;99851.38;;;2.48;100.00
8160;BME280;27404;52.398;9.646;2024-01-06T06:06:56;99853.00;;;2.43;100.00
8160;BME280;27404;52.398;9.646;2024-01-06T06:09:22;99864.47;;;2.51;100.00
8160;BME280;27404;52.398;9.646;2024-01-06T06:11:47;99869.00;;;2.44;100.00
8160;BME280;27404;52.398;9.646;2024-01-06T06:14:13;99879.94;;;2.36;100.00
8160;BME280;27404;52.398;9.646;2024-01-06T06:16:39;99873.53;;;2.37;100.00
8160;BME280;27404;52.398;9.646;2024-01-06T06:19:04;99884.53;;;2.42;100.00
8160;BME280;27404;52.398;9.646;2024-01-06T06:21:30;99882.41;;;2.31;100.00
8160;BME280;27404;52.398;9.646;2024-01-06T06:23:55;99888.22;;;2.34;100.00
8160;BME280;27404;52.398;9.646;2024-01-06T06:26:21;99888.69;;;2.45;100.00
8160;BME280;27404;52.398;9.646;2024-01-06T06:28:46;99896.38;;;2.48;100.00
8160;BME280;27404;52.398;9.646;2024-01-06T06:31:11;99908.22;;;2.47;100.00
8160;BME280;27404;52.398;9.646;2024-01-06T06:33:37;99908.38;;;2.39;100.00
8160;BME280;27404;52.398;9.646;2024-01-06T06:36:02;99915.28;;;2.48;100.00
8160;BME280;27404;52.398;9.646;2024-01-06T06:38:28;99917.91;;;2.34;100.00
8160;BME280;27404;52.398;9.646;2024-01-06T06:40:54;99927.03;;;2.33;100.00
8160;BME280;27404;52.398;9.646;2024-01-06T06:43:20;99925.16;;;2.27;100.00
8160;BME280;27404;52.398;9.646;2024-01-06T06:45:46;99925.16;;;2.27;100.00
8160;BME280;27404;52.398;9.646;2024-01-06T06:48:11;99933.28;;;2.41;100.00
8160;BME280;27404;52.398;9.646;2024-01-06T06:50:36;99930.31;;;2.29;100.00
8160;BME280;27404;52.398;9.646;2024-01-06T06:53:02;99939.81;;;2.18;100.00
8160;BME280;27404;52.398;9.646;2024-01-06T06:55:28;99944.22;;;2.26;100.00
8160;BME280;27404;52.398;9.646;2024-01-06T06:57:53;99943.63;;;2.30;100.00
8160;BME280;27404;52.398;9.646;2024-01-06T07:00:19;99943.78;;;2.22;100.00
8160;BME280;27404;52.398;9.646;2024-01-06T07:02:45;99945.09;;;2.33;100.00
8160;BME280;27404;52.398;9.646;2024-01-06T07:05:10;99945.72;;;2.35;100.00
8160;BME280;27404;52.398;9.646;2024-01-06T07:07:35;99943.38;;;2.25;100.00
8160;BME280;27404;52.398;9.646;2024-01-06T07:10:02;99952.53;;;2.31;100.00
8160;BME280;27404;52.398;9.646;2024-01-06T07:12:30;99955.72;;;2.41;100.00
8160;BME280;27404;52.398;9.646;2024-01-06T07:14:56;99960.25;;;2.41;100.00
8160;BME280;27404;52.398;9.646;2024-01-06T07:17:21;99964.19;;;2.31;100.00
8160;BME280;27404;52.398;9.646;2024-01-06T07:19:47;99960.75;;;2.16;100.00
8160;BME280;27404;52.398;9.646;2024-01-06T07:22:13;99965.53;;;2.20;100.00
8160;BME280;27404;52.398;9.646;2024-01-06T07:24:40;99962.34;;;2.10;100.00
8160;BME280;27404;52.398;9.646;2024-01-06T07:27:05;99976.47;;;2.12;100.00
8160;BME280;27404;52.398;9.646;2024-01-06T07:29:31;99978.50;;;2.03;100.00
8160;BME280;27404;52.398;9.646;2024-01-06T07:31:56;99980.34;;;2.03;100.00
8160;BME280;27404;52.398;9.646;2024-01-06T07:34:22;99984.47;;;1.99;100.00
8160;BME280;27404;52.398;9.646;2024-01-06T07:36:47;99988.81;;;2.00;100.00
8160;BME280;27404;52.398;9.646;2024-01-06T07:39:13;99986.53;;;1.97;100.00
8160;BME280;27404;52.398;9.646;2024-01-06T07:41:38;99999.31;;;1.88;100.00
8160;BME280;27404;52.398;9.646;2024-01-06T07:44:04;99995.78;;;1.87;100.00
8160;BME280;27404;52.398;9.646;2024-01-06T07:46:30;100002.63;;;1.90;100.00
8160;BME280;27404;52.398;9.646;2024-01-06T07:48:57;100005.19;;;1.98;100.00
8160;BME280;27404;52.398;9.646;2024-01-06T07:51:22;100011.63;;;1.97;100.00
8160;BME280;27404;52.398;9.646;2024-01-06T07:53:48;100017.69;;;2.06;100.00
8160;BME280;27404;52.398;9.646;2024-01-06T07:56:13;100015.78;;;2.00;100.00
8160;BME280;27404;52.398;9.646;2024-01-06T07:58:38;100032.19;;;2.05;100.00
8160;BME280;27404;52.398;9.646;2024-01-06T08:01:04;100029.59;;;1.90;100.00
8160;BME280;27404;52.398;9.646;2024-01-06T08:03:29;100036.31;;;2.01;100.00
8160;BME280;27404;52.398;9.646;2024-01-06T08:05:55;100038.56;;;1.97;100.00
8160;BME280;27404;52.398;9.646;2024-01-06T08:08:20;100044.69;;;1.84;100.00
8160;BME280;27404;52.398;9.646;2024-01-06T08:10:46;100039.72;;;1.88;100.00
8160;BME280;27404;52.398;9.646;2024-01-06T08:13:11;100038.41;;;1.99;100.00
8160;BME280;27404;52.398;9.646;2024-01-06T08:15:38;100046.34;;;1.85;100.00
8160;BME280;27404;52.398;9.646;2024-01-06T08:18:03;100053.97;;;1.82;100.00
8160;BME280;27404;52.398;9.646;2024-01-06T08:20:29;100053.44;;;1.71;100.00
8160;BME280;27404;52.398;9.646;2024-01-06T08:22:54;100056.28;;;1.85;100.00
8160;BME280;27404;52.398;9.646;2024-01-06T08:25:20;100072.72;;;1.90;100.00
8160;BME280;27404;52.398;9.646;2024-01-06T08:27:45;100073.19;;;1.94;100.00
8160;BME280;27404;52.398;9.646;2024-01-06T08:30:11;100073.63;;;1.97;100.00
8160;BME280;27404;52.398;9.646;2024-01-06T08:32:37;100074.13;;;1.86;100.00
8160;BME280;27404;52.398;9.646;2024-01-06T08:35:03;100082.56;;;1.98;100.00
8160;BME280;27404;52.398;9.646;2024-01-06T08:37:29;100083.16;;;2.00;100.00
8160;BME280;27404;52.398;9.646;2024-01-06T08:39:54;100088.25;;;2.10;100.00
8160;BME280;27404;52.398;9.646;2024-01-06T08:42:20;100091.72;;;2.03;100.00
8160;BME280;27404;52.398;9.646;2024-01-06T08:44:45;100096.72;;;2.06;100.00
8160;BME280;27404;52.398;9.646;2024-01-06T08:47:11;100093.78;;;2.01;100.00
8160;BME280;27404;52.398;9.646;2024-01-06T08:49:37;100105.00;;;2.05;100.00
8160;BME280;27404;52.398;9.646;2024-01-06T08:52:03;100106.59;;;1.99;100.00
8160;BME280;27404;52.398;9.646;2024-01-06T08:54:29;100107.13;;;2.10;100.00
8160;BME280;27404;52.398;9.646;2024-01-06T08:56:54;100119.44;;;1.97;100.00
8160;BME280;27404;52.398;9.646;2024-01-06T08:59:20;100116.09;;;1.95;100.00
8160;BME280;27404;52.398;9.646;2024-01-06T09:01:45;100123.94;;;2.12;100.00
8160;BME280;27404;52.398;9.646;2024-01-06T09:04:11;100132.59;;;2.07;100.00
8160;BME280;27404;52.398;9.646;2024-01-06T09:06:37;100137.03;;;2.15;100.00
8160;BME280;27404;52.398;9.646;2024-01-06T09:09:03;100135.25;;;2.22;100.00
8160;BME280;27404;52.398;9.646;2024-01-06T09:11:28;100141.19;;;2.17;100.00
8160;BME280;27404;52.398;9.646;2024-01-06T09:13:54;100147.63;;;2.16;100.00
8160;BME280;27404;52.398;9.646;2024-01-06T09:16:20;100143.09;;;2.17;100.00
8160;BME280;27404;52.398;9.646;2024-01-06T09:18:45;100154.13;;;2.22;100.00
8160;BME280;27404;52.398;9.646;2024-01-06T09:21:11;100161.38;;;2.21;100.00
8160;BME280;27404;52.398;9.646;2024-01-06T09:23:36;100162.41;;;2.20;100.00
8160;BME280;27404;52.398;9.646;2024-01-06T09:26:01;100160.34;;;2.22;100.00
8160;BME280;27404;52.398;9.646;2024-01-06T09:28:28;100169.56;;;2.13;100.00
8160;BME280;27404;52.398;9.646;2024-01-06T09:30:53;100181.22;;;2.14;100.00
8160;BME280;27404;52.398;9.646;2024-01-06T09:33:21;100178.84;;;2.26;100.00
8160;BME280;27404;52.398;9.646;2024-01-06T09:35:47;100184.28;;;2.11;100.00
8160;BME280;27404;52.398;9.646;2024-01-06T09:38:12;100182.69;;;2.16;100.00
8160;BME280;27404;52.398;9.646;2024-01-06T09:40:43;100187.31;;;2.22;100.00
8160;BME280;27404;52.398;9.646;2024-01-06T09:43:12;100198.03;;;2.16;100.00
8160;BME280;27404;52.398;9.646;2024-01-06T09:45:38;100203.09;;;2.26;100.00
8160;BME280;27404;52.398;9.646;2024-01-06T09:48:12;100195.03;;;2.26;100.00
8160;BME280;27404;52.398;9.646;2024-01-06T09:50:41;100201.44;;;2.25;100.00
8160;BME280;27404;52.398;9.646;2024-01-06T09:53:11;100202.19;;;2.18;100.00
8160;BME280;27404;52.398;9.646;2024-01-06T09:55:37;100195.63;;;2.06;100.00
8160;BME280;27404;52.398;9.646;2024-01-06T09:58:04;100207.19;;;2.00;100.00
8160;BME280;27404;52.398;9.646;2024-01-06T10:00:31;100205.06;;;1.95;100.00
8160;BME280;27404;52.398;9.646;2024-01-06T10:02:57;100209.06;;;1.99;100.00
8160;BME280;27404;52.398;9.646;2024-01-06T10:05:23;100211.69;;;2.14;100.00
8160;BME280;27404;52.398;9.646;2024-01-06T10:07:48;100212.94;;;2.12;100.00
8160;BME280;27404;52.398;9.646;2024-01-06T10:10:14;100215.09;;;2.01;100.00
8160;BME280;27404;52.398;9.646;2024-01-06T10:12:41;100223.25;;;2.08;100.00
8160;BME280;27404;52.398;9.646;2024-01-06T10:15:08;100224.03;;;2.24;100.00
8160;BME280;27404;52.398;9.646;2024-01-06T10:17:40;100222.97;;;2.18;100.00
8160;BME280;27404;52.398;9.646;2024-01-06T10:20:10;100224.34;;;2.14;100.00
8160;BME280;27404;52.398;9.646;2024-01-06T10:22:37;100226.59;;;2.10;100.00
8160;BME280;27404;52.398;9.646;2024-01-06T10:25:07;100229.50;;;2.09;100.00
8160;BME280;27404;52.398;9.646;2024-01-06T10:27:40;100236.34;;;2.11;100.00
8160;BME280;27404;52.398;9.646;2024-01-06T10:30:07;100238.50;;;2.16;100.00
8160;BME280;27404;52.398;9.646;2024-01-06T10:32:33;100242.16;;;2.30;100.00
8160;BME280;27404;52.398;9.646;2024-01-06T10:35:03;100239.41;;;2.08;100.00
8160;BME280;27404;52.398;9.646;2024-01-06T10:37:29;100244.56;;;1.88;100.00
8160;BME280;27404;52.398;9.646;2024-01-06T10:42:32;100241.88;;;1.88;100.00
8160;BME280;27404;52.398;9.646;2024-01-06T10:44:58;100249.75;;;2.04;100.00
8160;BME280;27404;52.398;9.646;2024-01-06T10:47:25;100260.28;;;1.99;100.00
8160;BME280;27404;52.398;9.646;2024-01-06T10:49:52;100254.44;;;1.96;100.00
8160;BME280;27404;52.398;9.646;2024-01-06T10:52:20;100257.50;;;1.92;100.00
8160;BME280;27404;52.398;9.646;2024-01-06T10:54:47;100260.84;;;1.95;100.00
8160;BME280;27404;52.398;9.646;2024-01-06T10:57:17;100264.13;;;1.75;100.00
8160;BME280;27404;52.398;9.646;2024-01-06T10:59:45;100261.13;;;1.85;100.00
8160;BME280;27404;52.398;9.646;2024-01-06T11:02:14;100272.88;;;1.62;100.00
8160;BME280;27404;52.398;9.646;2024-01-06T11:04:42;100274.53;;;1.63;100.00
8160;BME280;27404;52.398;9.646;2024-01-06T11:07:08;100270.16;;;1.62;100.00
8160;BME280;27404;52.398;9.646;2024-01-06T11:09:37;100273.03;;;1.60;100.00
8160;BME280;27404;52.398;9.646;2024-01-06T11:12:04;100273.31;;;1.66;100.00
8160;BME280;27404;52.398;9.646;2024-01-06T11:14:36;100275.34;;;1.63;100.00
8160;BME280;27404;52.398;9.646;2024-01-06T11:17:03;100275.56;;;1.62;100.00
8160;BME280;27404;52.398;9.646;2024-01-06T11:24:51;100273.41;;;1.42;100.00
8160;BME280;27404;52.398;9.646;2024-01-06T11:27:24;100278.50;;;1.52;100.00
8160;BME280;27404;52.398;9.646;2024-01-06T11:29:57;100275.97;;;1.36;100.00
8160;BME280;27404;52.398;9.646;2024-01-06T11:32:30;100277.00;;;1.35;100.00
8160;BME280;27404;52.398;9.646;2024-01-06T11:35:20;100271.72;;;1.41;100.00
8160;BME280;27404;52.398;9.646;2024-01-06T11:42:42;100270.34;;;1.30;100.00
8160;BME280;27404;52.398;9.646;2024-01-06T11:45:08;100275.16;;;1.35;100.00
8160;BME280;27404;52.398;9.646;2024-01-06T11:47:34;100274.72;;;1.46;100.00
8160;BME280;27404;52.398;9.646;2024-01-06T11:50:01;100272.19;;;1.30;100.00
8160;BME280;27404;52.398;9.646;2024-01-06T11:52:33;100275.97;;;1.21;100.00
8160;BME280;27404;52.398;9.646;2024-01-06T11:55:00;100273.28;;;1.36;100.00
8160;BME280;27404;52.398;9.646;2024-01-06T11:57:29;100272.09;;;1.38;100.00
8160;BME280;27404;52.398;9.646;2024-01-06T11:59:55;100276.81;;;1.21;100.00
8160;BME280;27404;52.398;9.646;2024-01-06T12:02:20;100273.06;;;1.07;100.00
8160;BME280;27404;52.398;9.646;2024-01-06T12:04:50;100271.97;;;1.16;100.00
8160;BME280;27404;52.398;9.646;2024-01-06T12:07:19;100284.16;;;1.27;100.00
8160;BME280;27404;52.398;9.646;2024-01-06T12:09:49;100278.81;;;1.04;100.00
8160;BME280;27404;52.398;9.646;2024-01-06T12:12:18;100278.44;;;1.07;100.00
8160;BME280;27404;52.398;9.646;2024-01-06T12:14:43;100292.84;;;1.14;100.00
8160;BME280;27404;52.398;9.646;2024-01-06T12:17:11;100295.66;;;1.21;100.00
8160;BME280;27404;52.398;9.646;2024-01-06T12:19:38;100295.75;;;1.28;100.00
8160;BME280;27404;52.398;9.646;2024-01-06T12:22:04;100293.91;;;1.28;100.00
8160;BME280;27404;52.398;9.646;2024-01-06T12:24:30;100293.56;;;1.31;100.00
8160;BME280;27404;52.398;9.646;2024-01-06T12:26:56;100301.41;;;1.18;100.00
8160;BME280;27404;52.398;9.646;2024-01-06T12:29:28;100301.25;;;0.96;100.00
8160;BME280;27404;52.398;9.646;2024-01-06T12:31:54;100298.88;;;0.78;100.00
8160;BME280;27404;52.398;9.646;2024-01-06T12:34:21;100311.25;;;0.87;100.00
8160;BME280;27404;52.398;9.646;2024-01-06T12:36:47;100305.25;;;1.00;100.00
8160;BME280;27404;52.398;9.646;2024-01-06T12:39:13;100308.91;;;1.08;100.00
8160;BME280;27404;52.398;9.646;2024-01-06T12:41:42;100316.56;;;0.96;100.00
8160;BME280;27404;52.398;9.646;2024-01-06T12:44:08;100319.06;;;0.97;100.00
8160;BME280;27404;52.398;9.646;2024-01-06T12:46:34;100326.44;;;0.80;100.00
8160;BME280;27404;52.398;9.646;2024-01-06T12:48:59;100317.50;;;0.80;100.00
8160;BME280;27404;52.398;9.646;2024-01-06T12:51:25;100311.06;;;0.66;100.00
8160;BME280;27404;52.398;9.646;2024-01-06T12:53:50;100319.38;;;0.79;100.00
8160;BME280;27404;52.398;9.646;2024-01-06T12:56:16;100319.84;;;0.83;100.00
8160;BME280;27404;52.398;9.646;2024-01-06T12:58:42;100321.09;;;0.95;100.00
8160;BME280;27404;52.398;9.646;2024-01-06T13:01:07;100325.94;;;0.77;100.00
8160;BME280;27404;52.398;9.646;2024-01-06T13:03:33;100333.25;;;0.68;100.00
8160;BME280;27404;52.398;9.646;2024-01-06T13:06:00;100332.69;;;0.72;100.00
8160;BME280;27404;52.398;9.646;2024-01-06T13:08:26;100333.72;;;0.71;100.00
8160;BME280;27404;52.398;9.646;2024-01-06T13:10:51;100333.59;;;0.65;100.00
8160;BME280;27404;52.398;9.646;2024-01-06T13:13:17;100332.59;;;0.66;100.00
8160;BME280;27404;52.398;9.646;2024-01-06T13:15:42;100335.22;;;0.74;100.00